Time;durP1;ratioP1;P1;durP2;ratioP2;P2;SDS_P1;SDS_P2;PMS_P1;PMS_P2;Temp;Humidity;BMP_temperature;BMP_pressure;BME280_temperature;BME280_humidity;BME280_pressure;Samples;Min_cycle;Max_cycle;Signal;HPM_P1;HPM_P2
2022/12/21 00:01:38;;;;;;;11.13;10.07;;;;;;;;;;6148918;23;20599;-83
2022/12/21 00:04:05;;;;;;;10.67;9.57;;;;;;;;;;6145454;23;20435;-83
2022/12/21 00:06:32;;;;;;;9.63;8.70;;;;;;;;;;6147317;23;20420;-82
2022/12/21 00:09:02;;;;;;;10.37;9.47;;;;;;;;;;6117178;23;21042;-82
2022/12/21 00:11:29;;;;;;;10.27;9.17;;;;;;;;;;6143118;23;20379;-83
2022/12/21 00:13:58;;;;;;;14.03;9.87;;;;;;;;;;6142441;23;20383;-81
2022/12/21 00:16:26;;;;;;;9.70;8.80;;;;;;;;;;6146787;23;20353;-82
2022/12/21 00:18:54;;;;;;;9.97;9.07;;;;;;;;;;6142842;23;20428;-82
2022/12/21 00:21:25;;;;;;;9.60;8.70;;;;;;;;;;6146984;23;20350;-82
2022/12/21 00:23:52;;;;;;;11.10;10.00;;;;;;;;;;6142357;23;20382;-83
2022/12/21 00:26:20;;;;;;;13.47;12.10;;;;;;;;;;6146951;23;20353;-82
2022/12/21 00:28:46;;;;;;;12.90;11.20;;;;;;;;;;6141696;23;20769;-82
2022/12/21 00:31:16;;;;;;;10.70;9.70;;;;;;;;;;6146435;23;20858;-82
2022/12/21 00:33:42;;;;;;;13.53;12.03;;;;;;;;;;6142911;23;20884;-81
2022/12/21 00:36:10;;;;;;;13.43;10.30;;;;;;;;;;6147715;23;20357;-81
2022/12/21 00:38:36;;;;;;;13.10;10.00;;;;;;;;;;6151378;23;20412;-83
2022/12/21 00:41:04;;;;;;;14.13;10.47;;;;;;;;;;6163725;23;20871;-82
2022/12/21 00:43:31;;;;;;;14.63;11.47;;;;;;;;;;6145284;23;20369;-81
2022/12/21 00:45:57;;;;;;;12.17;10.90;;;;;;;;;;6145432;23;20396;-80
2022/12/21 00:48:24;;;;;;;15.63;12.43;;;;;;;;;;6145432;23;20438;-81
2022/12/21 00:50:50;;;;;;;14.37;11.80;;;;;;;;;;6145473;23;20380;-82
2022/12/21 00:53:16;;;;;;;15.53;12.50;;;;;;;;;;6146532;23;20391;-83
2022/12/21 00:55:52;;;;;;;18.27;13.47;;;;;;;;;;6142328;23;20856;-82
2022/12/21 00:58:18;;;;;;;15.13;11.87;;;;;;;;;;6149051;23;20359;-81
2022/12/21 01:00:46;;;;;;;16.90;13.60;;;;;;;;;;6144902;23;20382;-82
2022/12/21 01:03:12;;;;;;;15.63;12.47;;;;;;;;;;6146188;23;20391;-81
2022/12/21 01:05:38;;;;;;;15.43;12.30;;;;;;;;;;6144024;23;21070;-81
2022/12/21 01:08:04;;;;;;;17.23;13.50;;;;;;;;;;6147928;23;20420;-81
2022/12/21 01:10:30;;;;;;;20.13;13.37;;;;;;;;;;6141541;23;20402;-81
2022/12/21 01:12:57;;;;;;;19.10;14.03;;;;;;;;;;6147596;23;20384;-81
2022/12/21 01:15:23;;;;;;;15.93;13.43;;;;;;;;;;6144680;23;20948;-83
2022/12/21 01:17:49;;;;;;;20.00;13.93;;;;;;;;;;6147708;23;20372;-80
2022/12/21 01:20:15;;;;;;;24.30;13.43;;;;;;;;;;6144211;23;20415;-81
2022/12/21 01:22:41;;;;;;;21.43;14.27;;;;;;;;;;6147372;23;20388;-81
2022/12/21 01:25:08;;;;;;;22.13;13.00;;;;;;;;;;6144276;23;20384;-81
2022/12/21 01:27:37;;;;;;;25.30;15.77;;;;;;;;;;6147770;23;20372;-80
2022/12/21 01:30:06;;;;;;;19.50;13.60;;;;;;;;;;6144865;23;20403;-82
2022/12/21 01:32:32;;;;;;;20.03;13.87;;;;;;;;;;6148039;23;20372;-82
2022/12/21 01:34:58;;;;;;;21.73;14.77;;;;;;;;;;6144339;23;20462;-81
2022/12/21 01:37:24;;;;;;;24.07;15.83;;;;;;;;;;6147732;23;20463;-82
2022/12/21 01:39:50;;;;;;;23.10;15.80;;;;;;;;;;6143424;23;20490;-81
2022/12/21 01:42:16;;;;;;;21.43;14.13;;;;;;;;;;6148240;23;20376;-81
2022/12/21 01:44:59;;;;;;;21.57;14.43;;;;;;;;;;6144519;23;20387;-81
2022/12/21 01:47:27;;;;;;;22.23;13.63;;;;;;;;;;6148802;23;20363;-80
2022/12/21 01:49:56;;;;;;;27.00;15.57;;;;;;;;;;6143958;23;21180;-80
2022/12/21 01:52:23;;;;;;;26.77;14.57;;;;;;;;;;6149060;23;20427;-81
2022/12/21 01:54:54;;;;;;;22.80;15.23;;;;;;;;;;6144483;23;20380;-81
2022/12/21 01:57:21;;;;;;;25.00;14.33;;;;;;;;;;6147997;23;20376;-80
2022/12/21 01:59:53;;;;;;;22.80;16.03;;;;;;;;;;6144117;23;20443;-81
2022/12/21 02:02:24;;;;;;;18.97;14.10;;;;;;;;;;6148035;23;20464;-80
2022/12/21 02:04:52;;;;;;;25.97;14.83;;;;;;;;;;6143918;23;21030;-80
2022/12/21 02:07:19;;;;;;;23.73;13.90;;;;;;;;;;6147459;23;20438;-80
2022/12/21 02:09:45;;;;;;;22.90;14.40;;;;;;;;;;6138489;23;20435;-81
2022/12/21 02:12:13;;;;;;;21.73;14.63;;;;;;;;;;6147491;23;21120;-80
2022/12/21 02:14:40;;;;;;;27.97;15.27;;;;;;;;;;6141473;23;21057;-80
2022/12/21 02:17:15;;;;;;;25.70;14.30;;;;;;;;;;6145791;23;20392;-81
2022/12/21 02:19:56;;;;;;;23.17;13.80;;;;;;;;;;6143016;23;20479;-80
2022/12/21 02:22:41;;;;;;;22.77;15.20;;;;;;;;;;6154331;23;20399;-79
2022/12/21 02:25:21;;;;;;;22.07;13.70;;;;;;;;;;6153249;23;20388;-79
2022/12/21 02:28:07;;;;;;;20.87;14.17;;;;;;;;;;6148617;23;20356;-80
2022/12/21 02:30:56;;;;;;;22.10;14.57;;;;;;;;;;6144043;23;20387;-80
2022/12/21 02:33:37;;;;;;;17.90;13.40;;;;;;;;;;6139484;23;20376;-80
2022/12/21 02:36:15;;;;;;;22.23;13.10;;;;;;;;;;6136174;23;20376;-81
2022/12/21 02:38:41;;;;;;;21.93;13.77;;;;;;;;;;6133461;23;20757;-80
2022/12/21 02:41:20;;;;;;;22.10;13.43;;;;;;;;;;6133305;23;20389;-79
2022/12/21 02:46:34;;;;;;;18.37;12.20;;;;;;;;;;6143586;23;20378;-80
2022/12/21 02:49:02;;;;;;;19.50;12.60;;;;;;;;;;6147174;23;20388;-80
2022/12/21 02:51:32;;;;;;;16.80;12.37;;;;;;;;;;6143403;23;20383;-80
2022/12/21 02:54:04;;;;;;;18.53;12.83;;;;;;;;;;6146799;23;20352;-80
2022/12/21 02:56:30;;;;;;;14.87;13.10;;;;;;;;;;6141345;23;20396;-80
2022/12/21 02:58:56;;;;;;;18.53;12.93;;;;;;;;;;6146432;23;20408;-80
2022/12/21 03:01:42;;;;;;;15.83;12.67;;;;;;;;;;6143236;23;20371;-80
2022/12/21 03:04:19;;;;;;;17.93;12.40;;;;;;;;;;6142896;23;20948;-79
2022/12/21 03:06:56;;;;;;;18.60;12.77;;;;;;;;;;6146435;23;20428;-80
2022/12/21 03:09:31;;;;;;;19.20;13.17;;;;;;;;;;6135860;23;20396;-79
2022/12/21 03:12:07;;;;;;;16.10;10.63;;;;;;;;;;6144045;23;20387;-80
2022/12/21 03:14:33;;;;;;;21.23;13.30;;;;;;;;;;6143403;23;20372;-80
2022/12/21 03:17:06;;;;;;;21.60;13.20;;;;;;;;;;6146796;23;20376;-79
2022/12/21 03:19:42;;;;;;;15.07;11.93;;;;;;;;;;6142700;23;20420;-80
2022/12/21 03:22:11;;;;;;;19.67;12.93;;;;;;;;;;6147027;23;20354;-79
2022/12/21 03:24:39;;;;;;;15.23;12.50;;;;;;;;;;6142520;23;20534;-79
2022/12/21 03:27:17;;;;;;;18.13;13.50;;;;;;;;;;6147069;23;20372;-79
2022/12/21 03:29:48;;;;;;;19.13;11.57;;;;;;;;;;6142994;23;20400;-80
2022/12/21 03:32:17;;;;;;;21.40;13.03;;;;;;;;;;6147545;23;20431;-79
2022/12/21 03:34:46;;;;;;;22.80;13.27;;;;;;;;;;6143347;23;20426;-79
2022/12/21 03:37:17;;;;;;;23.60;13.17;;;;;;;;;;6147066;23;20380;-79
2022/12/21 03:39:46;;;;;;;26.40;13.43;;;;;;;;;;6143415;23;20448;-79
2022/12/21 03:42:15;;;;;;;27.90;14.33;;;;;;;;;;6148077;23;20451;-79
2022/12/21 03:44:42;;;;;;;27.60;13.97;;;;;;;;;;6143792;23;20582;-79
2022/12/21 03:47:14;;;;;;;23.97;14.40;;;;;;;;;;6148096;23;20433;-80
2022/12/21 03:49:43;;;;;;;26.10;13.40;;;;;;;;;;6143858;23;20759;-80
2022/12/21 03:52:14;;;;;;;24.73;12.80;;;;;;;;;;6152760;23;20375;-80
2022/12/21 03:54:43;;;;;;;23.13;13.57;;;;;;;;;;6156877;23;20456;-79
2022/12/21 03:57:10;;;;;;;23.23;14.60;;;;;;;;;;6162609;23;20376;-79
2022/12/21 03:59:38;;;;;;;22.57;14.50;;;;;;;;;;6148299;23;20423;-80
2022/12/21 04:02:11;;;;;;;18.87;13.20;;;;;;;;;;6151642;23;20388;-79
2022/12/21 04:04:58;;;;;;;24.97;14.50;;;;;;;;;;6146909;23;20376;-78
2022/12/21 04:07:25;;;;;;;23.47;13.90;;;;;;;;;;6146887;23;20478;-81
2022/12/21 04:09:58;;;;;;;21.00;13.00;;;;;;;;;;6141537;23;20411;-80
2022/12/21 04:12:36;;;;;;;25.70;15.50;;;;;;;;;;6147871;23;20681;-79
2022/12/21 04:15:04;;;;;;;24.93;14.20;;;;;;;;;;6143254;23;20773;-80
2022/12/21 04:17:30;;;;;;;20.10;12.30;;;;;;;;;;6147187;23;20904;-80
2022/12/21 04:19:59;;;;;;;25.53;13.57;;;;;;;;;;6143233;23;20420;-80
2022/12/21 04:28:09;;;;;;;22.50;13.77;;;;;;;;;;6148311;23;20384;-81
2022/12/21 04:30:39;;;;;;;24.83;14.17;;;;;;;;;;6143110;23;20380;-82
2022/12/21 04:33:06;;;;;;;23.47;13.33;;;;;;;;;;6146958;23;20700;-84
2022/12/21 04:35:33;;;;;;;25.33;14.33;;;;;;;;;;6141284;23;20880;-82
2022/12/21 04:37:59;;;;;;;23.40;13.97;;;;;;;;;;6147243;23;20386;-82
2022/12/21 04:40:25;;;;;;;20.60;11.50;;;;;;;;;;6143098;23;20424;-83
2022/12/21 04:42:51;;;;;;;20.57;12.83;;;;;;;;;;6146883;23;20383;-83
2022/12/21 04:45:17;;;;;;;24.33;13.47;;;;;;;;;;6144252;23;20368;-83
2022/12/21 04:47:43;;;;;;;21.73;13.30;;;;;;;;;;6147528;23;20400;-83
2022/12/21 04:50:09;;;;;;;24.33;13.80;;;;;;;;;;6144526;23;20545;-83
2022/12/21 04:52:35;;;;;;;31.13;14.80;;;;;;;;;;6147228;23;20388;-83
2022/12/21 04:55:02;;;;;;;27.93;13.17;;;;;;;;;;6144362;23;20447;-83
2022/12/21 04:57:28;;;;;;;25.97;13.57;;;;;;;;;;6147014;23;20377;-83
2022/12/21 04:59:55;;;;;;;20.63;11.77;;;;;;;;;;6143615;23;20435;-83
2022/12/21 05:02:20;;;;;;;23.33;14.50;;;;;;;;;;6146731;23;20384;-84
2022/12/21 05:04:46;;;;;;;26.77;13.03;;;;;;;;;;6141765;23;20434;-84
2022/12/21 05:07:13;;;;;;;26.07;13.70;;;;;;;;;;6146926;23;20515;-82
2022/12/21 05:09:39;;;;;;;24.10;12.43;;;;;;;;;;6139385;23;20427;-84
2022/12/21 05:12:05;;;;;;;22.43;12.57;;;;;;;;;;6146916;23;20949;-82
2022/12/21 05:14:31;;;;;;;24.67;12.57;;;;;;;;;;6143309;23;20996;-83
2022/12/21 05:16:57;;;;;;;26.83;14.67;;;;;;;;;;6144910;23;20407;-84
2022/12/21 05:19:32;;;;;;;28.27;12.33;;;;;;;;;;6143680;23;20496;-82
2022/12/21 05:21:58;;;;;;;26.87;12.30;;;;;;;;;;6143508;23;20352;-84
2022/12/21 05:24:24;;;;;;;25.87;12.70;;;;;;;;;;6147059;23;20455;-84
2022/12/21 05:26:50;;;;;;;23.30;12.30;;;;;;;;;;6143768;23;20383;-82
2022/12/21 05:29:16;;;;;;;27.27;12.37;;;;;;;;;;6147360;23;20455;-81
2022/12/21 05:31:42;;;;;;;18.23;10.67;;;;;;;;;;6139317;23;20380;-82
2022/12/21 05:34:08;;;;;;;20.00;11.70;;;;;;;;;;6145615;23;20985;-83
2022/12/21 05:36:34;;;;;;;21.07;11.80;;;;;;;;;;6138075;23;20430;-82
2022/12/21 05:39:00;;;;;;;20.80;10.77;;;;;;;;;;6143932;23;20430;-83
2022/12/21 05:41:26;;;;;;;19.70;12.17;;;;;;;;;;6141288;23;20352;-82
2022/12/21 05:43:52;;;;;;;21.10;11.00;;;;;;;;;;6147702;23;20631;-83
2022/12/21 05:46:19;;;;;;;19.50;10.80;;;;;;;;;;6148302;23;20368;-83
2022/12/21 05:48:45;;;;;;;16.23;9.27;;;;;;;;;;6145940;23;20916;-84
2022/12/21 05:51:12;;;;;;;16.27;8.97;;;;;;;;;;6147964;23;20384;-82
2022/12/21 05:53:40;;;;;;;14.67;9.27;;;;;;;;;;6146932;23;21043;-83
2022/12/21 05:56:06;;;;;;;17.60;9.80;;;;;;;;;;6166770;23;20383;-82
2022/12/21 05:58:33;;;;;;;9.40;8.40;;;;;;;;;;6148856;23;20426;-83
2022/12/21 06:01:02;;;;;;;15.03;9.53;;;;;;;;;;6147839;23;20451;-82
2022/12/21 06:03:29;;;;;;;12.03;8.50;;;;;;;;;;6144913;23;20838;-82
2022/12/21 06:06:03;;;;;;;15.13;8.50;;;;;;;;;;6145882;23;20424;-81
2022/12/21 06:08:30;;;;;;;11.43;8.53;;;;;;;;;;6143835;23;20431;-81
2022/12/21 06:10:56;;;;;;;12.20;8.50;;;;;;;;;;6142705;23;20387;-83
2022/12/21 06:13:22;;;;;;;10.97;8.50;;;;;;;;;;6144590;23;20463;-81
2022/12/21 06:15:48;;;;;;;9.70;7.17;;;;;;;;;;6146571;23;20376;-80
2022/12/21 06:18:14;;;;;;;17.50;8.93;;;;;;;;;;6142814;23;20379;-80
2022/12/21 06:20:40;;;;;;;11.80;8.80;;;;;;;;;;6146644;23;20418;-81
2022/12/21 06:23:06;;;;;;;9.17;7.43;;;;;;;;;;6143551;23;20415;-81
2022/12/21 06:25:32;;;;;;;12.93;8.70;;;;;;;;;;6147783;23;20736;-81
2022/12/21 06:27:58;;;;;;;14.80;9.57;;;;;;;;;;6143068;23;20387;-80
2022/12/21 06:30:24;;;;;;;18.40;11.37;;;;;;;;;;6147148;23;20399;-82
2022/12/21 06:32:50;;;;;;;18.03;10.43;;;;;;;;;;6143884;23;20387;-82
2022/12/21 06:35:17;;;;;;;20.97;12.30;;;;;;;;;;6140660;23;21048;-79
2022/12/21 06:37:43;;;;;;;19.83;11.80;;;;;;;;;;6144348;23;20392;-81
2022/12/21 06:40:09;;;;;;;21.60;11.40;;;;;;;;;;6142948;23;20423;-81
2022/12/21 06:42:36;;;;;;;24.60;11.50;;;;;;;;;;6145645;23;20392;-82
2022/12/21 06:45:02;;;;;;;25.30;12.97;;;;;;;;;;6142312;23;20392;-81
2022/12/21 06:47:28;;;;;;;28.50;14.67;;;;;;;;;;6148144;23;20868;-81
2022/12/21 06:49:54;;;;;;;20.93;10.90;;;;;;;;;;6142766;23;20381;-81
2022/12/21 06:52:19;;;;;;;11.63;8.10;;;;;;;;;;6146817;23;20765;-80
2022/12/21 06:54:45;;;;;;;12.90;8.83;;;;;;;;;;6142813;23;20719;-81
2022/12/21 06:57:11;;;;;;;12.93;8.93;;;;;;;;;;6144847;23;20792;-81
2022/12/21 06:59:37;;;;;;;20.17;9.73;;;;;;;;;;6141419;23;20498;-81
2022/12/21 07:02:03;;;;;;;21.43;11.00;;;;;;;;;;6149240;23;20368;-81
2022/12/21 07:04:29;;;;;;;15.40;9.70;;;;;;;;;;6146648;23;20372;-79
2022/12/21 07:06:56;;;;;;;13.20;10.20;;;;;;;;;;6145476;23;20430;-81
2022/12/21 07:09:21;;;;;;;15.60;11.80;;;;;;;;;;6139414;23;20380;-79
2022/12/21 07:11:51;;;;;;;19.17;11.77;;;;;;;;;;6146912;23;20456;-82
2022/12/21 07:14:17;;;;;;;15.17;10.73;;;;;;;;;;6142458;23;20388;-80
2022/12/21 07:16:43;;;;;;;18.50;11.47;;;;;;;;;;6144152;23;20733;-80
2022/12/21 07:19:09;;;;;;;16.83;11.90;;;;;;;;;;6141607;23;20473;-81
2022/12/21 07:21:35;;;;;;;17.97;11.57;;;;;;;;;;6143992;23;20416;-79
2022/12/21 07:24:01;;;;;;;22.03;12.57;;;;;;;;;;6142133;23;20379;-80
2022/12/21 07:26:27;;;;;;;25.10;13.50;;;;;;;;;;6146358;23;20691;-81
2022/12/21 07:28:54;;;;;;;22.40;12.40;;;;;;;;;;6140042;23;20385;-81
2022/12/21 07:31:22;;;;;;;27.57;13.23;;;;;;;;;;6146731;23;20388;-83
2022/12/21 07:33:48;;;;;;;24.33;13.47;;;;;;;;;;6142901;23;20364;-80
2022/12/21 07:36:14;;;;;;;27.30;14.37;;;;;;;;;;6146458;23;20838;-80
2022/12/21 07:38:41;;;;;;;26.10;13.77;;;;;;;;;;6142540;23;20408;-80
2022/12/21 07:41:11;;;;;;;22.57;11.97;;;;;;;;;;6150831;23;20463;-81
2022/12/21 07:43:37;;;;;;;19.70;12.27;;;;;;;;;;6146961;23;20467;-80
2022/12/21 07:46:04;;;;;;;28.33;14.60;;;;;;;;;;6160875;23;20368;-81
2022/12/21 07:48:30;;;;;;;22.60;14.10;;;;;;;;;;6155693;23;20416;-80
2022/12/21 07:50:56;;;;;;;17.03;10.57;;;;;;;;;;6160973;23;20479;-80
2022/12/21 07:53:22;;;;;;;19.97;12.50;;;;;;;;;;6151909;23;20376;-80
2022/12/21 07:55:48;;;;;;;17.20;9.70;;;;;;;;;;6125370;23;20396;-81
2022/12/21 07:58:14;;;;;;;24.70;11.77;;;;;;;;;;6144750;23;20814;-80
2022/12/21 08:00:40;;;;;;;23.87;12.57;;;;;;;;;;6149064;23;20384;-81
2022/12/21 08:03:07;;;;;;;14.80;10.23;;;;;;;;;;6145671;23;20400;-81
2022/12/21 08:05:34;;;;;;;18.70;10.57;;;;;;;;;;6133693;23;20384;-80
2022/12/21 08:08:03;;;;;;;18.97;12.47;;;;;;;;;;6144411;23;20503;-81
2022/12/21 08:10:30;;;;;;;17.97;11.10;;;;;;;;;;6137200;23;20384;-80
2022/12/21 08:12:56;;;;;;;21.57;11.33;;;;;;;;;;6144535;23;20555;-79
2022/12/21 08:15:22;;;;;;;23.83;13.40;;;;;;;;;;6142562;23;20733;-79
2022/12/21 08:17:50;;;;;;;18.50;10.83;;;;;;;;;;6144936;23;20410;-81
2022/12/21 08:20:16;;;;;;;19.03;10.27;;;;;;;;;;6143305;23;20424;-80
2022/12/21 08:22:45;;;;;;;16.53;10.70;;;;;;;;;;6146091;23;20423;-83
2022/12/21 08:25:19;;;;;;;17.90;10.17;;;;;;;;;;6145814;23;20376;-82
2022/12/21 08:27:46;;;;;;;22.60;11.40;;;;;;;;;;6145786;23;20865;-81
2022/12/21 08:30:15;;;;;;;18.17;9.30;;;;;;;;;;6142233;23;20387;-81
2022/12/21 08:32:44;;;;;;;22.53;10.20;;;;;;;;;;6145995;23;20459;-79
2022/12/21 08:38:13;;;;;;;25.93;11.23;;;;;;;;;;6146072;23;20364;-77
2022/12/21 08:40:39;;;;;;;33.17;12.37;;;;;;;;;;6142182;23;20578;-80
2022/12/21 08:43:14;;;;;;;25.27;13.27;;;;;;;;;;6146069;23;20418;-82
2022/12/21 08:45:40;;;;;;;28.20;11.67;;;;;;;;;;6141770;23;20387;-79
2022/12/21 08:48:07;;;;;;;32.70;13.97;;;;;;;;;;6145672;23;20912;-79
2022/12/21 08:50:33;;;;;;;38.50;16.00;;;;;;;;;;6142104;23;20368;-79
2022/12/21 08:52:59;;;;;;;36.00;14.27;;;;;;;;;;6146083;23;20372;-79
2022/12/21 08:55:25;;;;;;;33.63;14.73;;;;;;;;;;6141010;23;20391;-79
2022/12/21 08:57:51;;;;;;;41.97;16.47;;;;;;;;;;6145212;23;20373;-78
2022/12/21 09:00:19;;;;;;;37.47;16.00;;;;;;;;;;6140795;23;20446;-80
2022/12/21 09:02:47;;;;;;;39.73;16.50;;;;;;;;;;6140053;23;20396;-79
2022/12/21 09:05:20;;;;;;;45.67;16.53;;;;;;;;;;6141116;23;20440;-80
2022/12/21 09:07:46;;;;;;;40.57;15.40;;;;;;;;;;6143230;23;20651;-80
2022/12/21 09:10:12;;;;;;;35.23;14.97;;;;;;;;;;6138935;23;20693;-79
2022/12/21 09:12:38;;;;;;;41.40;16.07;;;;;;;;;;6141249;23;20392;-79
2022/12/21 09:15:06;;;;;;;36.43;12.80;;;;;;;;;;6146205;23;20391;-79
2022/12/21 09:17:32;;;;;;;40.50;14.40;;;;;;;;;;6142357;23;20470;-82
2022/12/21 09:19:58;;;;;;;38.47;14.60;;;;;;;;;;6147138;23;20439;-79
2022/12/21 09:22:27;;;;;;;31.60;14.27;;;;;;;;;;6143403;23;20820;-80
2022/12/21 09:24:58;;;;;;;28.73;14.57;;;;;;;;;;6144511;23;20832;-81
2022/12/21 09:27:27;;;;;;;40.13;16.03;;;;;;;;;;6142103;23;20879;-78
2022/12/21 09:29:53;;;;;;;30.40;14.07;;;;;;;;;;6148566;23;20490;-80
2022/12/21 09:32:19;;;;;;;32.97;13.53;;;;;;;;;;6143892;23;20872;-79
2022/12/21 09:34:48;;;;;;;29.70;13.87;;;;;;;;;;6147058;23;20703;-79
2022/12/21 09:37:16;;;;;;;36.17;13.83;;;;;;;;;;6143618;23;20865;-79
2022/12/21 09:39:46;;;;;;;30.57;12.30;;;;;;;;;;6146540;23;20510;-76
2022/12/21 09:42:34;;;;;;;27.30;11.90;;;;;;;;;;6144421;23;20380;-79
2022/12/21 09:45:05;;;;;;;22.87;11.90;;;;;;;;;;6147529;23;20377;-79
2022/12/21 09:47:40;;;;;;;28.83;12.27;;;;;;;;;;6143437;23;20462;-79
2022/12/21 09:50:11;;;;;;;34.30;14.23;;;;;;;;;;6147527;23;20769;-79
2022/12/21 09:52:44;;;;;;;25.70;13.23;;;;;;;;;;6143069;23;20710;-79
2022/12/21 09:55:20;;;;;;;25.33;11.97;;;;;;;;;;6145054;23;20655;-81
2022/12/21 09:57:49;;;;;;;24.07;12.40;;;;;;;;;;6143646;23;20426;-81
2022/12/21 10:00:25;;;;;;;30.17;14.30;;;;;;;;;;6147108;23;20407;-80
2022/12/21 10:03:08;;;;;;;24.77;12.70;;;;;;;;;;6142888;23;20387;-80
2022/12/21 10:05:45;;;;;;;27.20;12.47;;;;;;;;;;6147001;23;20391;-82
2022/12/21 10:08:14;;;;;;;28.20;14.87;;;;;;;;;;6142254;23;20822;-78
2022/12/21 10:10:49;;;;;;;23.80;12.43;;;;;;;;;;6141628;23;20653;-77
2022/12/21 10:13:38;;;;;;;23.70;10.83;;;;;;;;;;6143789;23;20391;-79
2022/12/21 10:16:08;;;;;;;26.57;12.20;;;;;;;;;;6142856;23;20378;-77
2022/12/21 10:18:49;;;;;;;33.20;13.10;;;;;;;;;;6121111;23;20388;-78
2022/12/21 10:21:20;;;;;;;24.13;11.57;;;;;;;;;;6143414;23;20359;-79
2022/12/21 10:23:48;;;;;;;22.50;11.53;;;;;;;;;;6147029;23;20691;-79
2022/12/21 10:26:17;;;;;;;21.13;11.73;;;;;;;;;;6140983;23;21013;-78
2022/12/21 10:29:00;;;;;;;18.00;11.20;;;;;;;;;;6145999;23;20358;-79
2022/12/21 10:31:37;;;;;;;15.10;12.00;;;;;;;;;;6142497;23;20431;-79
2022/12/21 10:34:08;;;;;;;17.47;11.73;;;;;;;;;;6146973;23;20399;-79
2022/12/21 10:36:35;;;;;;;16.27;10.80;;;;;;;;;;6143441;23;20384;-79
2022/12/21 10:39:02;;;;;;;20.00;12.30;;;;;;;;;;6145150;23;20422;-76
2022/12/21 10:41:33;;;;;;;19.50;13.37;;;;;;;;;;6143409;23;20709;-78
2022/12/21 10:44:00;;;;;;;12.77;9.87;;;;;;;;;;6146716;23;20420;-79
2022/12/21 10:46:30;;;;;;;15.27;10.67;;;;;;;;;;6143120;23;20661;-81
2022/12/21 10:48:59;;;;;;;19.70;11.77;;;;;;;;;;6148463;23;20690;-79
2022/12/21 10:51:33;;;;;;;18.77;11.93;;;;;;;;;;6149203;23;20419;-79
2022/12/21 10:54:02;;;;;;;22.20;12.37;;;;;;;;;;6152828;23;20651;-79
2022/12/21 10:56:30;;;;;;;19.53;11.93;;;;;;;;;;6149739;23;20383;-79
2022/12/21 10:59:00;;;;;;;16.20;9.93;;;;;;;;;;6149830;23;20412;-80
2022/12/21 11:01:29;;;;;;;21.60;13.00;;;;;;;;;;6141446;23;20407;-81
2022/12/21 11:04:14;;;;;;;15.43;10.77;;;;;;;;;;6145884;23;20431;-79
2022/12/21 11:06:40;;;;;;;14.97;10.60;;;;;;;;;;6142329;23;20910;-78
2022/12/21 11:09:26;;;;;;;16.67;11.00;;;;;;;;;;6141412;23;20365;-79
2022/12/21 11:11:54;;;;;;;13.90;9.47;;;;;;;;;;6145427;23;20455;-80
2022/12/21 11:14:20;;;;;;;11.97;9.70;;;;;;;;;;6140749;23;20388;-78
2022/12/21 11:16:47;;;;;;;10.70;8.47;;;;;;;;;;6147699;23;20881;-76
2022/12/21 11:19:14;;;;;;;16.50;9.27;;;;;;;;;;6140491;23;20423;-80
2022/12/21 11:21:46;;;;;;;15.97;9.53;;;;;;;;;;6146181;23;20361;-78
2022/12/21 11:24:14;;;;;;;10.37;8.37;;;;;;;;;;6142476;23;20387;-78
2022/12/21 11:26:47;;;;;;;13.50;8.40;;;;;;;;;;6143932;23;20383;-77
2022/12/21 11:29:33;;;;;;;10.93;9.83;;;;;;;;;;6140729;23;20672;-80
2022/12/21 11:32:07;;;;;;;12.13;8.97;;;;;;;;;;6146045;23;20376;-82
2022/12/21 11:34:37;;;;;;;9.80;7.20;;;;;;;;;;6146818;23;20379;-80
2022/12/21 11:37:21;;;;;;;8.10;6.97;;;;;;;;;;6148817;23;20482;-82
2022/12/21 11:39:48;;;;;;;9.67;7.30;;;;;;;;;;6143099;23;20428;-83
2022/12/21 11:42:21;;;;;;;11.43;6.87;;;;;;;;;;6146916;23;20477;-82
2022/12/21 11:44:53;;;;;;;12.20;7.07;;;;;;;;;;6144955;23;20369;-82
2022/12/21 11:47:42;;;;;;;8.40;7.57;;;;;;;;;;6147072;23;20583;-80
2022/12/21 11:50:23;;;;;;;13.10;8.40;;;;;;;;;;6143399;23;20380;-80
2022/12/21 11:53:03;;;;;;;12.40;8.17;;;;;;;;;;6148753;23;20474;-81
2022/12/21 11:55:55;;;;;;;16.10;9.50;;;;;;;;;;6149339;23;20451;-79
2022/12/21 11:58:27;;;;;;;13.70;9.63;;;;;;;;;;6147606;23;20705;-79
2022/12/21 12:01:12;;;;;;;11.90;8.27;;;;;;;;;;6148959;23;20380;-80
2022/12/21 12:03:44;;;;;;;9.77;8.70;;;;;;;;;;6151636;23;20376;-80
2022/12/21 12:06:10;;;;;;;15.80;7.43;;;;;;;;;;6148505;23;20399;-79
2022/12/21 12:08:55;;;;;;;11.80;7.40;;;;;;;;;;6150747;23;20508;-82
2022/12/21 12:11:21;;;;;;;15.07;7.47;;;;;;;;;;6146142;23;20916;-82
2022/12/21 12:14:01;;;;;;;8.60;7.10;;;;;;;;;;6145915;23;20934;-79
2022/12/21 12:16:30;;;;;;;13.83;7.50;;;;;;;;;;6141291;23;20392;-79
2022/12/21 12:19:13;;;;;;;9.80;6.83;;;;;;;;;;6146832;23;20412;-78
2022/12/21 12:21:47;;;;;;;7.30;6.10;;;;;;;;;;6148455;23;20360;-80
2022/12/21 12:24:25;;;;;;;5.43;4.87;;;;;;;;;;6116947;23;20373;-79
2022/12/21 12:26:57;;;;;;;9.50;5.80;;;;;;;;;;6146960;23;20432;-81
2022/12/21 12:29:26;;;;;;;8.00;5.93;;;;;;;;;;6143442;23;20739;-80
2022/12/21 12:32:11;;;;;;;12.20;6.80;;;;;;;;;;6145994;23;20414;-80
2022/12/21 12:34:56;;;;;;;6.73;5.67;;;;;;;;;;6142487;23;20489;-81
2022/12/21 12:37:40;;;;;;;8.00;7.07;;;;;;;;;;6146728;23;20376;-79
2022/12/21 12:40:25;;;;;;;6.13;5.43;;;;;;;;;;6140730;23;20505;-79
2022/12/21 12:42:52;;;;;;;12.70;6.70;;;;;;;;;;6145490;23;20380;-80
2022/12/21 12:45:29;;;;;;;10.57;6.20;;;;;;;;;;6140479;23;20404;-81
2022/12/21 12:48:01;;;;;;;8.47;5.80;;;;;;;;;;6144458;23;20724;-79
2022/12/21 12:50:34;;;;;;;8.80;6.37;;;;;;;;;;6140333;23;20391;-79
2022/12/21 12:53:09;;;;;;;8.37;7.57;;;;;;;;;;6149880;23;20700;-80
2022/12/21 12:55:48;;;;;;;8.33;5.83;;;;;;;;;;6142269;23;20422;-80
2022/12/21 12:58:26;;;;;;;11.60;6.27;;;;;;;;;;6147814;23;20467;-79
2022/12/21 13:00:58;;;;;;;5.33;4.60;;;;;;;;;;6143765;23;20665;-80
2022/12/21 13:03:43;;;;;;;12.03;5.67;;;;;;;;;;6148542;23;20523;-78
2022/12/21 13:06:09;;;;;;;6.67;5.40;;;;;;;;;;6143312;23;20896;-81
2022/12/21 13:08:54;;;;;;;9.20;5.30;;;;;;;;;;6145070;23;20427;-79
2022/12/21 13:11:30;;;;;;;7.50;4.60;;;;;;;;;;6143980;23;20376;-78
2022/12/21 13:14:15;;;;;;;5.67;5.17;;;;;;;;;;6145806;23;20650;-80
2022/12/21 13:19:38;;;;;;;10.10;5.03;;;;;;;;;;6149929;23;20439;-78
2022/12/21 13:22:05;;;;;;;7.00;5.60;;;;;;;;;;6157003;23;20391;-79
2022/12/21 13:24:57;;;;;;;8.20;6.43;;;;;;;;;;6145656;23;20376;-81
2022/12/21 13:27:26;;;;;;;8.07;5.00;;;;;;;;;;6143581;23;20394;-80
2022/12/21 13:30:28;;;;;;;11.03;6.37;;;;;;;;;;6145403;23;20850;-81
2022/12/21 13:32:57;;;;;;;8.10;5.37;;;;;;;;;;6072133;23;20506;-81
2022/12/21 13:35:26;;;;;;;8.73;5.23;;;;;;;;;;6153605;23;20368;-80
2022/12/21 13:38:03;;;;;;;5.10;4.47;;;;;;;;;;6148125;23;20383;-81
2022/12/21 13:40:40;;;;;;;5.40;3.83;;;;;;;;;;6142416;23;20940;-81
2022/12/21 13:43:17;;;;;;;5.00;4.27;;;;;;;;;;6141927;23;20394;-78
2022/12/21 13:45:49;;;;;;;4.10;3.80;;;;;;;;;;6148445;23;20356;-80
2022/12/21 13:48:17;;;;;;;4.33;3.97;;;;;;;;;;6143408;23;20449;-77
2022/12/21 13:51:02;;;;;;;6.47;3.00;;;;;;;;;;6147165;23;20372;-79
2022/12/21 13:53:28;;;;;;;4.87;3.87;;;;;;;;;;6142977;23;20466;-79
2022/12/21 13:56:14;;;;;;;8.67;3.80;;;;;;;;;;6146371;23;20446;-79
2022/12/21 13:58:43;;;;;;;3.90;3.40;;;;;;;;;;6140579;23;20519;-79
2022/12/21 14:01:16;;;;;;;8.30;3.60;;;;;;;;;;6146207;23;20559;-79
2022/12/21 14:03:59;;;;;;;5.43;3.43;;;;;;;;;;6140495;23;20695;-81
2022/12/21 14:06:48;;;;;;;4.97;2.57;;;;;;;;;;6144604;23;20393;-79
2022/12/21 14:09:33;;;;;;;7.17;4.27;;;;;;;;;;6075113;23;20400;-78
2022/12/21 14:12:05;;;;;;;5.47;3.47;;;;;;;;;;6142097;23;20992;-80
2022/12/21 14:14:58;;;;;;;5.67;3.70;;;;;;;;;;6148436;23;20391;-79
2022/12/21 14:17:28;;;;;;;4.63;3.23;;;;;;;;;;6097776;23;20392;-78
2022/12/21 14:19:55;;;;;;;4.33;3.13;;;;;;;;;;6119757;23;20455;-79
2022/12/21 14:22:35;;;;;;;3.53;3.33;;;;;;;;;;6141041;23;20400;-80
2022/12/21 14:25:03;;;;;;;4.60;3.73;;;;;;;;;;6147107;23;20631;-80
2022/12/21 14:27:29;;;;;;;3.90;3.50;;;;;;;;;;6142505;23;20388;-78
2022/12/21 14:30:29;;;;;;;15.07;5.33;;;;;;;;;;6147499;23;20630;-82
2022/12/21 14:33:02;;;;;;;7.27;4.80;;;;;;;;;;6143540;23;20439;-81
2022/12/21 14:35:37;;;;;;;7.33;3.80;;;;;;;;;;6121333;23;20738;-80
2022/12/21 14:38:19;;;;;;;5.90;4.63;;;;;;;;;;6142108;23;20448;-81
2022/12/21 14:40:56;;;;;;;8.63;4.90;;;;;;;;;;6145478;23;20511;-80
2022/12/21 14:43:22;;;;;;;8.20;5.07;;;;;;;;;;6145317;23;20392;-79
2022/12/21 14:45:51;;;;;;;6.37;5.77;;;;;;;;;;6147648;23;20406;-82
2022/12/21 14:48:41;;;;;;;5.57;5.07;;;;;;;;;;6143091;23;20403;-80
2022/12/21 14:51:08;;;;;;;6.37;4.80;;;;;;;;;;6131520;23;20416;-81
2022/12/21 14:53:41;;;;;;;6.00;4.30;;;;;;;;;;6141338;23;20404;-81
2022/12/21 14:56:23;;;;;;;4.33;4.10;;;;;;;;;;6147107;23;20426;-80
2022/12/21 14:58:58;;;;;;;10.43;4.10;;;;;;;;;;6121828;23;20458;-79